sensor_id;sensor_type;location;lat;lon;timestamp;temperature;humidity
18733;DHT22;9495;51.210;2.934;2024-03-08T00:00:46;7.10;99.90
18733;DHT22;9495;51.210;2.934;2024-03-08T00:03:14;7.20;99.90
18733;DHT22;9495;51.210;2.934;2024-03-08T00:05:42;7.10;99.90
18733;DHT22;9495;51.210;2.934;2024-03-08T00:08:11;7.10;99.90
18733;DHT22;9495;51.210;2.934;2024-03-08T00:10:39;7.10;99.90
18733;DHT22;9495;51.210;2.934;2024-03-08T00:13:07;7.10;99.90
18733;DHT22;9495;51.210;2.934;2024-03-08T00:15:35;7.00;99.90
18733;DHT22;9495;51.210;2.934;2024-03-08T00:18:05;6.90;99.90
18733;DHT22;9495;51.210;2.934;2024-03-08T00:20:34;6.90;99.90
18733;DHT22;9495;51.210;2.934;2024-03-08T00:23:02;6.90;99.90
18733;DHT22;9495;51.210;2.934;2024-03-08T00:25:31;7.00;99.90
18733;DHT22;9495;51.210;2.934;2024-03-08T00:28:00;6.90;99.90
18733;DHT22;9495;51.210;2.934;2024-03-08T00:30:29;6.90;99.90
18733;DHT22;9495;51.210;2.934;2024-03-08T00:32:58;6.80;99.90
18733;DHT22;9495;51.210;2.934;2024-03-08T00:35:28;6.90;99.90
18733;DHT22;9495;51.210;2.934;2024-03-08T00:37:57;6.90;99.90
18733;DHT22;9495;51.210;2.934;2024-03-08T00:40:25;6.80;99.90
18733;DHT22;9495;51.210;2.934;2024-03-08T00:42:54;6.80;99.90
18733;DHT22;9495;51.210;2.934;2024-03-08T00:45:22;6.80;99.90
18733;DHT22;9495;51.210;2.934;2024-03-08T00:47:51;6.70;99.90
18733;DHT22;9495;51.210;2.934;2024-03-08T00:50:19;6.70;99.90
18733;DHT22;9495;51.210;2.934;2024-03-08T00:52:49;6.70;99.90
18733;DHT22;9495;51.210;2.934;2024-03-08T00:55:17;6.80;99.90
18733;DHT22;9495;51.210;2.934;2024-03-08T00:57:46;6.80;99.90
18733;DHT22;9495;51.210;2.934;2024-03-08T01:00:14;6.70;99.90
18733;DHT22;9495;51.210;2.934;2024-03-08T01:02:43;6.70;99.90
18733;DHT22;9495;51.210;2.934;2024-03-08T01:05:12;6.60;99.90
18733;DHT22;9495;51.210;2.934;2024-03-08T01:07:41;6.60;99.90
18733;DHT22;9495;51.210;2.934;2024-03-08T01:10:11;6.60;99.90
18733;DHT22;9495;51.210;2.934;2024-03-08T01:12:39;6.60;99.90
18733;DHT22;9495;51.210;2.934;2024-03-08T01:15:08;6.60;99.90
18733;DHT22;9495;51.210;2.934;2024-03-08T01:17:37;6.60;99.90
18733;DHT22;9495;51.210;2.934;2024-03-08T01:20:07;6.60;99.90
18733;DHT22;9495;51.210;2.934;2024-03-08T01:22:38;6.50;99.90
18733;DHT22;9495;51.210;2.934;2024-03-08T01:25:07;6.50;99.90
18733;DHT22;9495;51.210;2.934;2024-03-08T01:27:37;6.50;99.90
18733;DHT22;9495;51.210;2.934;2024-03-08T01:30:06;6.60;99.90
18733;DHT22;9495;51.210;2.934;2024-03-08T01:32:36;6.50;99.90
18733;DHT22;9495;51.210;2.934;2024-03-08T01:35:06;6.60;99.90
18733;DHT22;9495;51.210;2.934;2024-03-08T01:37:36;6.50;99.90
18733;DHT22;9495;51.210;2.934;2024-03-08T01:40:06;6.60;99.90
18733;DHT22;9495;51.210;2.934;2024-03-08T01:42:36;6.50;99.90
18733;DHT22;9495;51.210;2.934;2024-03-08T01:45:06;6.40;99.90
18733;DHT22;9495;51.210;2.934;2024-03-08T01:47:35;6.60;99.90
18733;DHT22;9495;51.210;2.934;2024-03-08T01:50:05;6.40;99.90
18733;DHT22;9495;51.210;2.934;2024-03-08T01:52:34;6.40;99.90
18733;DHT22;9495;51.210;2.934;2024-03-08T01:55:05;6.40;99.90
18733;DHT22;9495;51.210;2.934;2024-03-08T01:57:36;6.30;99.90
18733;DHT22;9495;51.210;2.934;2024-03-08T02:00:06;6.30;99.90
18733;DHT22;9495;51.210;2.934;2024-03-08T02:02:37;6.30;99.90
18733;DHT22;9495;51.210;2.934;2024-03-08T02:05:08;6.30;99.90
18733;DHT22;9495;51.210;2.934;2024-03-08T02:07:36;6.30;99.90
18733;DHT22;9495;51.210;2.934;2024-03-08T02:10:06;6.20;99.90
18733;DHT22;9495;51.210;2.934;2024-03-08T02:12:36;6.30;99.90
18733;DHT22;9495;51.210;2.934;2024-03-08T02:15:05;6.20;99.90
18733;DHT22;9495;51.210;2.934;2024-03-08T02:17:34;6.20;99.90
18733;DHT22;9495;51.210;2.934;2024-03-08T02:20:04;6.20;99.90
18733;DHT22;9495;51.210;2.934;2024-03-08T02:22:33;6.10;99.90
18733;DHT22;9495;51.210;2.934;2024-03-08T02:25:03;6.10;99.90
18733;DHT22;9495;51.210;2.934;2024-03-08T02:27:32;6.10;99.90
18733;DHT22;9495;51.210;2.934;2024-03-08T02:30:00;6.10;99.90
18733;DHT22;9495;51.210;2.934;2024-03-08T02:32:29;6.00;99.90
18733;DHT22;9495;51.210;2.934;2024-03-08T02:34:59;6.10;99.90
18733;DHT22;9495;51.210;2.934;2024-03-08T02:37:28;6.10;99.90
18733;DHT22;9495;51.210;2.934;2024-03-08T02:39:58;6.00;99.90
18733;DHT22;9495;51.210;2.934;2024-03-08T02:42:26;5.90;99.90
18733;DHT22;9495;51.210;2.934;2024-03-08T02:44:55;6.00;99.90
18733;DHT22;9495;51.210;2.934;2024-03-08T02:47:23;6.00;99.90
18733;DHT22;9495;51.210;2.934;2024-03-08T02:49:54;6.00;99.90
18733;DHT22;9495;51.210;2.934;2024-03-08T02:52:22;6.00;99.90
18733;DHT22;9495;51.210;2.934;2024-03-08T02:54:51;6.00;99.90
18733;DHT22;9495;51.210;2.934;2024-03-08T02:57:21;5.90;99.90
18733;DHT22;9495;51.210;2.934;2024-03-08T02:59:50;5.90;99.90
18733;DHT22;9495;51.210;2.934;2024-03-08T03:02:18;5.90;99.90
18733;DHT22;9495;51.210;2.934;2024-03-08T03:04:47;5.80;99.90
18733;DHT22;9495;51.210;2.934;2024-03-08T03:07:15;5.80;99.90
18733;DHT22;9495;51.210;2.934;2024-03-08T03:09:43;5.70;99.90
18733;DHT22;9495;51.210;2.934;2024-03-08T03:12:12;5.80;99.90
18733;DHT22;9495;51.210;2.934;2024-03-08T03:14:42;5.70;99.90
18733;DHT22;9495;51.210;2.934;2024-03-08T03:17:10;5.80;99.90
18733;DHT22;9495;51.210;2.934;2024-03-08T03:19:41;5.70;99.90
18733;DHT22;9495;51.210;2.934;2024-03-08T03:22:11;5.70;99.90
18733;DHT22;9495;51.210;2.934;2024-03-08T03:24:39;5.80;99.90
18733;DHT22;9495;51.210;2.934;2024-03-08T03:27:09;5.70;99.90
18733;DHT22;9495;51.210;2.934;2024-03-08T03:29:39;5.70;99.90
18733;DHT22;9495;51.210;2.934;2024-03-08T03:32:10;5.60;99.90
18733;DHT22;9495;51.210;2.934;2024-03-08T03:34:39;5.60;99.90
18733;DHT22;9495;51.210;2.934;2024-03-08T03:37:07;5.60;99.90
18733;DHT22;9495;51.210;2.934;2024-03-08T03:39:39;5.60;99.90
18733;DHT22;9495;51.210;2.934;2024-03-08T03:42:16;5.60;99.90
18733;DHT22;9495;51.210;2.934;2024-03-08T03:44:45;5.60;99.90
18733;DHT22;9495;51.210;2.934;2024-03-08T03:47:16;5.60;99.90
18733;DHT22;9495;51.210;2.934;2024-03-08T03:49:44;5.60;99.90
18733;DHT22;9495;51.210;2.934;2024-03-08T03:52:13;5.60;99.90
18733;DHT22;9495;51.210;2.934;2024-03-08T03:54:42;5.50;99.90
18733;DHT22;9495;51.210;2.934;2024-03-08T03:57:10;5.50;99.90
18733;DHT22;9495;51.210;2.934;2024-03-08T03:59:40;5.50;99.90
18733;DHT22;9495;51.210;2.934;2024-03-08T04:02:08;5.50;99.90
18733;DHT22;9495;51.210;2.934;2024-03-08T04:04:38;5.40;99.90
18733;DHT22;9495;51.210;2.934;2024-03-08T04:07:06;5.50;99.90
18733;DHT22;9495;51.210;2.934;2024-03-08T04:09:36;5.50;99.90
18733;DHT22;9495;51.210;2.934;2024-03-08T04:12:05;5.50;99.90
18733;DHT22;9495;51.210;2.934;2024-03-08T04:14:34;5.40;99.90
18733;DHT22;9495;51.210;2.934;2024-03-08T04:17:02;5.40;99.90
18733;DHT22;9495;51.210;2.934;2024-03-08T04:19:30;5.30;99.90
18733;DHT22;9495;51.210;2.934;2024-03-08T04:22:00;5.30;99.90
18733;DHT22;9495;51.210;2.934;2024-03-08T04:24:29;5.40;99.90
18733;DHT22;9495;51.210;2.934;2024-03-08T04:26:58;5.40;99.90
18733;DHT22;9495;51.210;2.934;2024-03-08T04:29:26;5.40;99.90
18733;DHT22;9495;51.210;2.934;2024-03-08T04:31:55;5.40;99.90
18733;DHT22;9495;51.210;2.934;2024-03-08T04:34:23;5.30;99.90
18733;DHT22;9495;51.210;2.934;2024-03-08T04:36:51;5.30;99.90
18733;DHT22;9495;51.210;2.934;2024-03-08T04:39:21;5.20;99.90
18733;DHT22;9495;51.210;2.934;2024-03-08T04:41:50;5.20;99.90
18733;DHT22;9495;51.210;2.934;2024-03-08T04:44:19;5.10;99.90
18733;DHT22;9495;51.210;2.934;2024-03-08T04:46:47;5.30;99.90
18733;DHT22;9495;51.210;2.934;2024-03-08T04:49:16;5.20;99.90
18733;DHT22;9495;51.210;2.934;2024-03-08T04:51:44;5.20;99.90
18733;DHT22;9495;51.210;2.934;2024-03-08T04:54:13;5.10;99.90
18733;DHT22;9495;51.210;2.934;2024-03-08T04:56:43;5.10;99.90
18733;DHT22;9495;51.210;2.934;2024-03-08T04:59:11;5.10;99.90
18733;DHT22;9495;51.210;2.934;2024-03-08T05:01:40;5.00;99.90
18733;DHT22;9495;51.210;2.934;2024-03-08T05:04:09;5.10;99.90
18733;DHT22;9495;51.210;2.934;2024-03-08T05:06:37;5.20;99.90
18733;DHT22;9495;51.210;2.934;2024-03-08T05:09:05;5.10;99.90
18733;DHT22;9495;51.210;2.934;2024-03-08T05:11:42;5.00;99.90
18733;DHT22;9495;51.210;2.934;2024-03-08T05:14:11;5.00;99.90
18733;DHT22;9495;51.210;2.934;2024-03-08T05:16:44;5.00;99.90
18733;DHT22;9495;51.210;2.934;2024-03-08T05:19:16;4.90;99.90
18733;DHT22;9495;51.210;2.934;2024-03-08T05:21:46;5.00;99.90
18733;DHT22;9495;51.210;2.934;2024-03-08T05:24:15;5.00;99.90
18733;DHT22;9495;51.210;2.934;2024-03-08T05:26:46;5.00;99.90
18733;DHT22;9495;51.210;2.934;2024-03-08T05:29:15;5.00;99.90
18733;DHT22;9495;51.210;2.934;2024-03-08T05:31:46;5.00;99.90
18733;DHT22;9495;51.210;2.934;2024-03-08T05:34:15;5.00;99.90
18733;DHT22;9495;51.210;2.934;2024-03-08T05:36:44;4.90;99.90
18733;DHT22;9495;51.210;2.934;2024-03-08T05:39:13;4.90;99.90
18733;DHT22;9495;51.210;2.934;2024-03-08T05:41:42;4.90;99.90
18733;DHT22;9495;51.210;2.934;2024-03-08T05:44:12;4.90;99.90
18733;DHT22;9495;51.210;2.934;2024-03-08T05:46:41;4.90;99.90
18733;DHT22;9495;51.210;2.934;2024-03-08T05:49:09;4.80;99.90
18733;DHT22;9495;51.210;2.934;2024-03-08T05:51:40;4.80;99.90
18733;DHT22;9495;51.210;2.934;2024-03-08T05:54:09;4.80;99.90
18733;DHT22;9495;51.210;2.934;2024-03-08T05:56:42;4.80;99.90
18733;DHT22;9495;51.210;2.934;2024-03-08T05:59:13;4.80;99.90
18733;DHT22;9495;51.210;2.934;2024-03-08T06:01:41;4.80;99.90
18733;DHT22;9495;51.210;2.934;2024-03-08T06:04:10;4.80;99.90
18733;DHT22;9495;51.210;2.934;2024-03-08T06:06:39;4.80;99.90
18733;DHT22;9495;51.210;2.934;2024-03-08T06:09:08;4.70;99.90
18733;DHT22;9495;51.210;2.934;2024-03-08T06:11:39;4.70;99.90
18733;DHT22;9495;51.210;2.934;2024-03-08T06:14:09;4.60;99.90
18733;DHT22;9495;51.210;2.934;2024-03-08T06:16:39;4.70;99.90
18733;DHT22;9495;51.210;2.934;2024-03-08T06:19:07;4.70;99.90
18733;DHT22;9495;51.210;2.934;2024-03-08T06:21:36;4.70;99.90
18733;DHT22;9495;51.210;2.934;2024-03-08T06:24:05;4.70;99.90
18733;DHT22;9495;51.210;2.934;2024-03-08T06:26:33;4.80;99.90
18733;DHT22;9495;51.210;2.934;2024-03-08T06:29:06;4.60;99.90
18733;DHT22;9495;51.210;2.934;2024-03-08T06:31:34;4.80;99.90
18733;DHT22;9495;51.210;2.934;2024-03-08T06:34:07;4.80;99.90
18733;DHT22;9495;51.210;2.934;2024-03-08T06:36:36;4.70;99.90
18733;DHT22;9495;51.210;2.934;2024-03-08T06:39:05;4.80;99.90
18733;DHT22;9495;51.210;2.934;2024-03-08T06:41:37;4.60;99.90
18733;DHT22;9495;51.210;2.934;2024-03-08T06:44:06;4.70;99.90
18733;DHT22;9495;51.210;2.934;2024-03-08T06:46:35;4.70;99.90
18733;DHT22;9495;51.210;2.934;2024-03-08T06:49:06;4.60;99.90
18733;DHT22;9495;51.210;2.934;2024-03-08T06:51:37;4.60;99.90
18733;DHT22;9495;51.210;2.934;2024-03-08T06:54:07;4.60;99.90
18733;DHT22;9495;51.210;2.934;2024-03-08T06:56:36;4.60;99.90
18733;DHT22;9495;51.210;2.934;2024-03-08T06:59:05;4.60;99.90
18733;DHT22;9495;51.210;2.934;2024-03-08T07:01:38;4.50;99.90
18733;DHT22;9495;51.210;2.934;2024-03-08T07:04:08;4.60;99.90
18733;DHT22;9495;51.210;2.934;2024-03-08T07:06:39;4.60;99.90
18733;DHT22;9495;51.210;2.934;2024-03-08T07:09:07;4.70;99.90
18733;DHT22;9495;51.210;2.934;2024-03-08T07:11:36;4.70;99.90
18733;DHT22;9495;51.210;2.934;2024-03-08T07:14:06;4.70;99.90
18733;DHT22;9495;51.210;2.934;2024-03-08T07:16:35;4.70;99.90
18733;DHT22;9495;51.210;2.934;2024-03-08T07:19:03;4.80;99.90
18733;DHT22;9495;51.210;2.934;2024-03-08T07:21:34;4.80;99.90
18733;DHT22;9495;51.210;2.934;2024-03-08T07:24:03;4.80;99.90
18733;DHT22;9495;51.210;2.934;2024-03-08T07:26:45;5.00;99.90
18733;DHT22;9495;51.210;2.934;2024-03-08T07:29:16;4.90;99.90
18733;DHT22;9495;51.210;2.934;2024-03-08T07:31:44;5.00;99.90
18733;DHT22;9495;51.210;2.934;2024-03-08T07:34:22;5.10;99.90
18733;DHT22;9495;51.210;2.934;2024-03-08T07:36:52;5.10;99.90
18733;DHT22;9495;51.210;2.934;2024-03-08T07:39:20;5.20;99.90
18733;DHT22;9495;51.210;2.934;2024-03-08T07:41:50;5.20;99.90
18733;DHT22;9495;51.210;2.934;2024-03-08T07:44:20;5.10;99.90
18733;DHT22;9495;51.210;2.934;2024-03-08T07:46:48;5.20;99.90
18733;DHT22;9495;51.210;2.934;2024-03-08T07:49:18;5.20;99.90
18733;DHT22;9495;51.210;2.934;2024-03-08T07:51:46;5.70;99.90
18733;DHT22;9495;51.210;2.934;2024-03-08T07:54:17;5.80;99.90
18733;DHT22;9495;51.210;2.934;2024-03-08T07:56:45;6.40;99.90
18733;DHT22;9495;51.210;2.934;2024-03-08T07:59:14;8.00;99.90
18733;DHT22;9495;51.210;2.934;2024-03-08T08:01:42;7.90;99.90
18733;DHT22;9495;51.210;2.934;2024-03-08T08:04:11;7.70;99.90
18733;DHT22;9495;51.210;2.934;2024-03-08T08:06:41;9.20;99.90
18733;DHT22;9495;51.210;2.934;2024-03-08T08:09:09;8.30;99.90
18733;DHT22;9495;51.210;2.934;2024-03-08T08:11:42;7.40;99.90
18733;DHT22;9495;51.210;2.934;2024-03-08T08:14:11;7.50;99.90
18733;DHT22;9495;51.210;2.934;2024-03-08T08:16:39;7.40;99.90
18733;DHT22;9495;51.210;2.934;2024-03-08T08:19:09;7.60;99.90
18733;DHT22;9495;51.210;2.934;2024-03-08T08:21:41;7.50;99.90
18733;DHT22;9495;51.210;2.934;2024-03-08T08:24:10;7.80;99.90
18733;DHT22;9495;51.210;2.934;2024-03-08T08:26:38;7.50;99.90
18733;DHT22;9495;51.210;2.934;2024-03-08T08:29:08;7.40;99.90
18733;DHT22;9495;51.210;2.934;2024-03-08T08:31:37;7.50;99.90
18733;DHT22;9495;51.210;2.934;2024-03-08T08:34:05;7.30;99.90
18733;DHT22;9495;51.210;2.934;2024-03-08T08:36:34;7.30;99.90
18733;DHT22;9495;51.210;2.934;2024-03-08T08:39:04;7.30;99.90
18733;DHT22;9495;51.210;2.934;2024-03-08T08:41:33;8.40;99.90
18733;DHT22;9495;51.210;2.934;2024-03-08T08:44:01;7.90;99.90
18733;DHT22;9495;51.210;2.934;2024-03-08T08:46:43;8.60;99.90
18733;DHT22;9495;51.210;2.934;2024-03-08T08:49:11;9.40;99.90
18733;DHT22;9495;51.210;2.934;2024-03-08T08:51:41;9.50;99.90
18733;DHT22;9495;51.210;2.934;2024-03-08T08:54:10;8.80;99.90
18733;DHT22;9495;51.210;2.934;2024-03-08T08:56:41;8.80;99.90
18733;DHT22;9495;51.210;2.934;2024-03-08T08:59:10;8.70;99.90
18733;DHT22;9495;51.210;2.934;2024-03-08T09:01:40;8.80;99.90
18733;DHT22;9495;51.210;2.934;2024-03-08T09:04:10;9.70;99.90
18733;DHT22;9495;51.210;2.934;2024-03-08T09:06:39;9.30;99.90
18733;DHT22;9495;51.210;2.934;2024-03-08T09:09:08;10.10;99.90
18733;DHT22;9495;51.210;2.934;2024-03-08T09:11:37;10.00;99.90
18733;DHT22;9495;51.210;2.934;2024-03-08T09:14:08;9.30;99.90
18733;DHT22;9495;51.210;2.934;2024-03-08T09:16:39;9.80;99.90
18733;DHT22;9495;51.210;2.934;2024-03-08T09:19:07;11.50;99.90
18733;DHT22;9495;51.210;2.934;2024-03-08T09:21:39;12.90;99.90
18733;DHT22;9495;51.210;2.934;2024-03-08T09:24:07;13.00;99.90
18733;DHT22;9495;51.210;2.934;2024-03-08T09:26:36;12.90;99.90
18733;DHT22;9495;51.210;2.934;2024-03-08T09:29:04;12.00;99.90
18733;DHT22;9495;51.210;2.934;2024-03-08T09:31:33;13.10;99.90
18733;DHT22;9495;51.210;2.934;2024-03-08T09:34:02;13.60;99.90
18733;DHT22;9495;51.210;2.934;2024-03-08T09:36:30;12.70;99.90
18733;DHT22;9495;51.210;2.934;2024-03-08T09:39:01;11.80;99.90
18733;DHT22;9495;51.210;2.934;2024-03-08T09:41:29;12.80;99.90
18733;DHT22;9495;51.210;2.934;2024-03-08T09:43:58;12.80;99.90
18733;DHT22;9495;51.210;2.934;2024-03-08T09:46:27;11.80;99.90
18733;DHT22;9495;51.210;2.934;2024-03-08T09:48:56;12.90;99.90
18733;DHT22;9495;51.210;2.934;2024-03-08T09:51:28;14.00;99.90
18733;DHT22;9495;51.210;2.934;2024-03-08T09:53:57;13.50;99.90
18733;DHT22;9495;51.210;2.934;2024-03-08T09:56:32;13.50;99.90
18733;DHT22;9495;51.210;2.934;2024-03-08T09:59:01;13.40;99.90
18733;DHT22;9495;51.210;2.934;2024-03-08T10:01:52;13.30;99.90
18733;DHT22;9495;51.210;2.934;2024-03-08T10:04:23;13.30;99.90
18733;DHT22;9495;51.210;2.934;2024-03-08T10:06:52;14.00;99.90
18733;DHT22;9495;51.210;2.934;2024-03-08T10:09:21;14.70;99.90
18733;DHT22;9495;51.210;2.934;2024-03-08T10:11:56;15.00;99.90
18733;DHT22;9495;51.210;2.934;2024-03-08T10:14:24;14.80;99.90
18733;DHT22;9495;51.210;2.934;2024-03-08T10:16:54;13.70;99.90
18733;DHT22;9495;51.210;2.934;2024-03-08T10:19:27;14.90;99.90
18733;DHT22;9495;51.210;2.934;2024-03-08T10:21:57;15.30;99.90
18733;DHT22;9495;51.210;2.934;2024-03-08T10:24:27;15.20;99.90
18733;DHT22;9495;51.210;2.934;2024-03-08T10:26:58;15.40;99.90
18733;DHT22;9495;51.210;2.934;2024-03-08T10:29:27;15.10;99.90
18733;DHT22;9495;51.210;2.934;2024-03-08T10:31:55;14.80;99.90
18733;DHT22;9495;51.210;2.934;2024-03-08T10:34:24;15.30;99.90
18733;DHT22;9495;51.210;2.934;2024-03-08T10:36:53;15.50;99.90
18733;DHT22;9495;51.210;2.934;2024-03-08T10:39:27;15.70;99.90
18733;DHT22;9495;51.210;2.934;2024-03-08T10:42:03;15.00;99.90
18733;DHT22;9495;51.210;2.934;2024-03-08T10:44:49;15.10;99.90
18733;DHT22;9495;51.210;2.934;2024-03-08T10:47:26;15.30;99.90
18733;DHT22;9495;51.210;2.934;2024-03-08T10:50:05;14.40;99.90
18733;DHT22;9495;51.210;2.934;2024-03-08T10:52:37;14.50;99.90
18733;DHT22;9495;51.210;2.934;2024-03-08T10:55:06;15.10;99.90
18733;DHT22;9495;51.210;2.934;2024-03-08T10:57:41;15.80;99.90
18733;DHT22;9495;51.210;2.934;2024-03-08T11:00:11;16.20;99.90
18733;DHT22;9495;51.210;2.934;2024-03-08T11:02:43;15.60;99.90
18733;DHT22;9495;51.210;2.934;2024-03-08T11:05:30;15.80;99.90
18733;DHT22;9495;51.210;2.934;2024-03-08T11:08:02;15.80;99.90
18733;DHT22;9495;51.210;2.934;2024-03-08T11:10:31;16.00;99.90
18733;DHT22;9495;51.210;2.934;2024-03-08T11:13:02;15.90;99.90
18733;DHT22;9495;51.210;2.934;2024-03-08T11:15:30;15.20;99.90
18733;DHT22;9495;51.210;2.934;2024-03-08T11:18:00;16.60;99.90
18733;DHT22;9495;51.210;2.934;2024-03-08T11:20:29;15.30;99.90
18733;DHT22;9495;51.210;2.934;2024-03-08T11:23:01;12.40;99.90
18733;DHT22;9495;51.210;2.934;2024-03-08T11:25:38;11.70;99.90
18733;DHT22;9495;51.210;2.934;2024-03-08T11:28:11;11.20;99.90
18733;DHT22;9495;51.210;2.934;2024-03-08T11:30:45;11.10;99.90
18733;DHT22;9495;51.210;2.934;2024-03-08T11:33:17;11.10;99.90
18733;DHT22;9495;51.210;2.934;2024-03-08T11:35:46;11.80;99.90
18733;DHT22;9495;51.210;2.934;2024-03-08T11:38:15;13.20;99.90
18733;DHT22;9495;51.210;2.934;2024-03-08T11:40:46;13.40;99.90
18733;DHT22;9495;51.210;2.934;2024-03-08T11:43:18;13.60;99.90
18733;DHT22;9495;51.210;2.934;2024-03-08T11:45:47;14.50;99.90
18733;DHT22;9495;51.210;2.934;2024-03-08T11:48:15;14.60;99.90
18733;DHT22;9495;51.210;2.934;2024-03-08T11:50:44;13.60;99.90
18733;DHT22;9495;51.210;2.934;2024-03-08T11:53:12;14.40;99.90
18733;DHT22;9495;51.210;2.934;2024-03-08T11:55:40;13.90;99.90
18733;DHT22;9495;51.210;2.934;2024-03-08T11:58:09;14.00;99.90
18733;DHT22;9495;51.210;2.934;2024-03-08T12:00:41;14.60;99.90
18733;DHT22;9495;51.210;2.934;2024-03-08T12:03:09;14.60;99.90
18733;DHT22;9495;51.210;2.934;2024-03-08T12:05:39;16.40;99.90
18733;DHT22;9495;51.210;2.934;2024-03-08T12:08:08;14.10;99.90
18733;DHT22;9495;51.210;2.934;2024-03-08T12:10:40;13.20;99.90
18733;DHT22;9495;51.210;2.934;2024-03-08T12:13:09;15.00;99.90
18733;DHT22;9495;51.210;2.934;2024-03-08T12:15:42;14.60;99.90
18733;DHT22;9495;51.210;2.934;2024-03-08T12:18:11;15.20;99.90
18733;DHT22;9495;51.210;2.934;2024-03-08T12:20:40;15.30;99.90
18733;DHT22;9495;51.210;2.934;2024-03-08T12:23:14;15.40;99.90
18733;DHT22;9495;51.210;2.934;2024-03-08T12:25:43;14.40;99.90
18733;DHT22;9495;51.210;2.934;2024-03-08T12:28:13;14.00;99.90
18733;DHT22;9495;51.210;2.934;2024-03-08T12:30:48;13.90;99.90
18733;DHT22;9495;51.210;2.934;2024-03-08T12:33:18;14.00;99.90
18733;DHT22;9495;51.210;2.934;2024-03-08T12:35:53;14.30;99.90
18733;DHT22;9495;51.210;2.934;2024-03-08T12:38:23;14.90;99.90
18733;DHT22;9495;51.210;2.934;2024-03-08T12:40:55;14.30;99.90
18733;DHT22;9495;51.210;2.934;2024-03-08T12:43:24;14.00;99.90
18733;DHT22;9495;51.210;2.934;2024-03-08T12:45:54;14.50;99.90
18733;DHT22;9495;51.210;2.934;2024-03-08T12:48:22;14.90;99.90
18733;DHT22;9495;51.210;2.934;2024-03-08T12:50:52;15.50;99.90
18733;DHT22;9495;51.210;2.934;2024-03-08T12:53:20;15.70;99.90
18733;DHT22;9495;51.210;2.934;2024-03-08T12:55:50;14.70;99.90
18733;DHT22;9495;51.210;2.934;2024-03-08T12:58:19;14.30;99.90
18733;DHT22;9495;51.210;2.934;2024-03-08T13:00:48;14.80;99.90
18733;DHT22;9495;51.210;2.934;2024-03-08T13:03:21;15.10;99.90
18733;DHT22;9495;51.210;2.934;2024-03-08T13:05:50;14.10;99.90
18733;DHT22;9495;51.210;2.934;2024-03-08T13:08:18;15.30;99.90
18733;DHT22;9495;51.210;2.934;2024-03-08T13:10:48;15.70;99.90
18733;DHT22;9495;51.210;2.934;2024-03-08T13:13:18;15.20;99.90
18733;DHT22;9495;51.210;2.934;2024-03-08T13:15:46;14.70;99.90
18733;DHT22;9495;51.210;2.934;2024-03-08T13:18:16;15.10;99.90
18733;DHT22;9495;51.210;2.934;2024-03-08T13:20:46;15.30;99.90
18733;DHT22;9495;51.210;2.934;2024-03-08T13:23:16;15.80;99.90
18733;DHT22;9495;51.210;2.934;2024-03-08T13:25:45;15.60;99.90
18733;DHT22;9495;51.210;2.934;2024-03-08T13:28:14;16.10;99.90
18733;DHT22;9495;51.210;2.934;2024-03-08T13:30:44;16.40;99.90
18733;DHT22;9495;51.210;2.934;2024-03-08T13:33:12;16.00;99.90
18733;DHT22;9495;51.210;2.934;2024-03-08T13:35:41;16.10;99.90
18733;DHT22;9495;51.210;2.934;2024-03-08T13:38:11;16.70;99.90
18733;DHT22;9495;51.210;2.934;2024-03-08T13:40:40;16.40;99.90
18733;DHT22;9495;51.210;2.934;2024-03-08T13:43:09;16.80;99.90
18733;DHT22;9495;51.210;2.934;2024-03-08T13:45:37;17.00;99.90
18733;DHT22;9495;51.210;2.934;2024-03-08T13:48:06;17.00;99.90
18733;DHT22;9495;51.210;2.934;2024-03-08T13:50:39;17.30;99.90
18733;DHT22;9495;51.210;2.934;2024-03-08T13:53:08;17.10;99.90
18733;DHT22;9495;51.210;2.934;2024-03-08T13:55:38;17.00;99.90
18733;DHT22;9495;51.210;2.934;2024-03-08T13:58:07;17.00;99.90
18733;DHT22;9495;51.210;2.934;2024-03-08T14:00:37;16.80;99.90
18733;DHT22;9495;51.210;2.934;2024-03-08T14:03:08;16.40;99.90
18733;DHT22;9495;51.210;2.934;2024-03-08T14:05:38;16.40;99.90
18733;DHT22;9495;51.210;2.934;2024-03-08T14:08:07;17.10;99.90
18733;DHT22;9495;51.210;2.934;2024-03-08T14:10:35;16.90;99.90
18733;DHT22;9495;51.210;2.934;2024-03-08T14:13:06;16.00;99.90
18733;DHT22;9495;51.210;2.934;2024-03-08T14:15:35;15.40;99.90
18733;DHT22;9495;51.210;2.934;2024-03-08T14:18:05;15.50;99.90
18733;DHT22;9495;51.210;2.934;2024-03-08T14:20:34;15.70;99.90
18733;DHT22;9495;51.210;2.934;2024-03-08T14:23:03;15.00;99.90
18733;DHT22;9495;51.210;2.934;2024-03-08T14:25:33;15.30;99.90
18733;DHT22;9495;51.210;2.934;2024-03-08T14:28:02;15.90;99.90
18733;DHT22;9495;51.210;2.934;2024-03-08T14:30:35;15.40;99.90
18733;DHT22;9495;51.210;2.934;2024-03-08T14:33:05;15.50;99.90
18733;DHT22;9495;51.210;2.934;2024-03-08T14:35:36;16.00;99.90
18733;DHT22;9495;51.210;2.934;2024-03-08T14:38:05;16.00;99.90
18733;DHT22;9495;51.210;2.934;2024-03-08T14:40:35;16.20;99.90
18733;DHT22;9495;51.210;2.934;2024-03-08T14:43:05;16.20;99.90
18733;DHT22;9495;51.210;2.934;2024-03-08T14:45:35;16.20;99.90
18733;DHT22;9495;51.210;2.934;2024-03-08T14:48:05;16.40;99.90
18733;DHT22;9495;51.210;2.934;2024-03-08T14:50:33;16.50;99.90
18733;DHT22;9495;51.210;2.934;2024-03-08T14:53:04;15.50;99.90
18733;DHT22;9495;51.210;2.934;2024-03-08T14:55:34;15.50;99.90
18733;DHT22;9495;51.210;2.934;2024-03-08T14:58:02;16.20;99.90
18733;DHT22;9495;51.210;2.934;2024-03-08T15:00:31;15.60;99.90
18733;DHT22;9495;51.210;2.934;2024-03-08T15:03:04;15.30;99.90
18733;DHT22;9495;51.210;2.934;2024-03-08T15:05:34;15.00;99.90
18733;DHT22;9495;51.210;2.934;2024-03-08T15:08:06;15.70;99.90
18733;DHT22;9495;51.210;2.934;2024-03-08T15:10:39;16.00;99.90
18733;DHT22;9495;51.210;2.934;2024-03-08T15:13:09;16.10;99.90
18733;DHT22;9495;51.210;2.934;2024-03-08T15:15:49;16.00;99.90
18733;DHT22;9495;51.210;2.934;2024-03-08T15:18:24;15.50;99.90
18733;DHT22;9495;51.210;2.934;2024-03-08T15:20:58;16.30;99.90
18733;DHT22;9495;51.210;2.934;2024-03-08T15:23:26;16.50;99.90
18733;DHT22;9495;51.210;2.934;2024-03-08T15:25:54;15.70;99.90
18733;DHT22;9495;51.210;2.934;2024-03-08T15:28:23;15.70;99.90
18733;DHT22;9495;51.210;2.934;2024-03-08T15:30:57;15.50;99.90
18733;DHT22;9495;51.210;2.934;2024-03-08T15:33:34;16.00;99.90
18733;DHT22;9495;51.210;2.934;2024-03-08T15:36:08;15.60;99.90
18733;DHT22;9495;51.210;2.934;2024-03-08T15:38:38;15.90;99.90
18733;DHT22;9495;51.210;2.934;2024-03-08T15:41:06;15.40;99.90
18733;DHT22;9495;51.210;2.934;2024-03-08T15:43:37;15.60;99.90
18733;DHT22;9495;51.210;2.934;2024-03-08T15:46:07;15.20;99.90
18733;DHT22;9495;51.210;2.934;2024-03-08T15:48:38;15.70;99.90
18733;DHT22;9495;51.210;2.934;2024-03-08T15:51:06;15.40;99.90
18733;DHT22;9495;51.210;2.934;2024-03-08T15:53:37;15.30;99.90
18733;DHT22;9495;51.210;2.934;2024-03-08T15:56:06;15.60;99.90
18733;DHT22;9495;51.210;2.934;2024-03-08T15:58:35;15.80;99.90
18733;DHT22;9495;51.210;2.934;2024-03-08T16:01:05;15.60;99.90
18733;DHT22;9495;51.210;2.934;2024-03-08T16:03:34;16.10;99.90
18733;DHT22;9495;51.210;2.934;2024-03-08T16:06:04;16.70;99.90
18733;DHT22;9495;51.210;2.934;2024-03-08T16:08:33;16.20;99.90
18733;DHT22;9495;51.210;2.934;2024-03-08T16:11:04;15.60;99.90